createdAt,value
2023-05-25T00:00:57.365Z,9.80
2023-05-25T00:03:31.404Z,9.70
2023-05-25T00:05:58.886Z,9.90
2023-05-25T00:08:25.976Z,9.80
2023-05-25T00:10:52.969Z,9.70
2023-05-25T00:13:19.867Z,9.70
2023-05-25T00:15:46.725Z,9.70
2023-05-25T00:18:13.688Z,9.70
2023-05-25T00:20:40.589Z,9.80
2023-05-25T00:23:07.723Z,9.80
2023-05-25T00:25:34.585Z,10.40
2023-05-25T00:28:04.408Z,9.70
2023-05-25T00:30:31.325Z,9.70
2023-05-25T00:33:01.421Z,9.70
2023-05-25T00:35:28.614Z,9.60
2023-05-25T00:37:55.946Z,9.60
2023-05-25T00:40:23.103Z,9.80
2023-05-25T00:42:51.463Z,9.70
2023-05-25T00:45:18.387Z,9.70
2023-05-25T00:47:46.792Z,9.60
2023-05-25T00:50:17.281Z,9.70
2023-05-25T00:52:44.238Z,9.70
2023-05-25T00:55:16.060Z,9.70
2023-05-25T00:57:46.018Z,9.70
2023-05-25T01:00:15.782Z,9.60
2023-05-25T01:02:46.042Z,9.70
2023-05-25T01:05:14.970Z,9.70
2023-05-25T01:07:45.075Z,9.70
2023-05-25T01:10:15.817Z,9.70
2023-05-25T01:12:44.694Z,9.70
2023-05-25T01:15:12.465Z,9.70
2023-05-25T01:17:39.892Z,9.70
2023-05-25T01:20:11.227Z,9.80
2023-05-25T01:22:49.470Z,9.80
2023-05-25T01:25:25.305Z,9.70
2023-05-25T01:27:57.913Z,9.60
2023-05-25T01:30:26.636Z,9.70
2023-05-25T01:32:54.715Z,10.50
2023-05-25T01:35:22.972Z,9.60
2023-05-25T01:37:51.809Z,9.70
2023-05-25T01:40:18.977Z,9.70
2023-05-25T01:42:45.991Z,9.70
2023-05-25T01:45:14.915Z,9.70
2023-05-25T01:47:48.487Z,9.70
2023-05-25T01:51:07.501Z,9.70
2023-05-25T01:53:43.659Z,9.70
2023-05-25T01:56:13.771Z,9.60
2023-05-25T01:58:46.193Z,9.60
2023-05-25T02:01:17.299Z,9.60
2023-05-25T02:03:48.996Z,9.60
2023-05-25T02:06:16.643Z,9.60
2023-05-25T02:08:46.698Z,9.70
2023-05-25T02:11:17.001Z,9.70
2023-05-25T02:13:46.296Z,9.60
2023-05-25T02:16:13.239Z,9.60
2023-05-25T02:18:45.906Z,9.70
2023-05-25T02:21:13.353Z,9.60
2023-05-25T02:23:40.611Z,9.80
2023-05-25T02:26:07.495Z,9.70
2023-05-25T02:28:34.550Z,9.70
2023-05-25T02:31:01.723Z,9.70
2023-05-25T02:33:28.736Z,9.60
2023-05-25T02:35:57.377Z,9.60
2023-05-25T02:38:24.328Z,9.70
2023-05-25T02:40:51.332Z,9.70
2023-05-25T02:43:20.488Z,9.70
2023-05-25T02:45:47.504Z,9.90
2023-05-25T02:48:14.327Z,9.80
2023-05-25T02:50:41.775Z,9.60
2023-05-25T02:53:12.671Z,9.80
2023-05-25T02:55:40.587Z,9.60
2023-05-25T02:58:10.471Z,9.70
2023-05-25T03:01:05.510Z,9.70
2023-05-25T03:03:35.902Z,9.60
2023-05-25T03:06:04.244Z,9.70
2023-05-25T03:08:31.648Z,9.60
2023-05-25T03:10:59.816Z,9.50
2023-05-25T03:13:26.949Z,9.50
2023-05-25T03:15:53.892Z,9.50
2023-05-25T03:18:20.812Z,9.50
2023-05-25T03:20:48.072Z,9.60
2023-05-25T03:23:15.083Z,9.50
2023-05-25T03:25:42.273Z,9.50
2023-05-25T03:28:10.387Z,9.60
2023-05-25T03:30:38.719Z,9.80
2023-05-25T03:33:05.846Z,9.40
2023-05-25T03:35:40.416Z,9.40
2023-05-25T03:38:08.167Z,9.40
2023-05-25T03:40:35.500Z,9.40
2023-05-25T03:43:02.346Z,9.40
2023-05-25T03:45:29.318Z,9.40
2023-05-25T03:47:56.456Z,9.40
2023-05-25T03:50:23.516Z,9.40
2023-05-25T03:52:50.426Z,9.50
2023-05-25T03:55:17.511Z,9.40
2023-05-25T03:57:45.191Z,9.40
2023-05-25T04:00:12.868Z,9.30
2023-05-25T04:02:39.848Z,9.40
2023-05-25T04:05:07.155Z,9.40
2023-05-25T04:07:37.041Z,9.40
2023-05-25T04:10:05.076Z,9.40
2023-05-25T04:12:32.521Z,9.40
2023-05-25T04:15:00.144Z,9.40
2023-05-25T04:17:28.530Z,9.40
2023-05-25T04:19:56.569Z,9.50
2023-05-25T04:22:23.401Z,9.40
2023-05-25T04:24:50.507Z,9.50
2023-05-25T04:27:17.427Z,9.30
2023-05-25T04:29:44.376Z,9.40
2023-05-25T04:32:46.942Z,9.30
2023-05-25T04:35:31.668Z,9.40
2023-05-25T04:38:02.914Z,9.40
2023-05-25T04:40:30.484Z,9.30
2023-05-25T04:42:58.064Z,9.30
2023-05-25T04:45:25.148Z,9.40
2023-05-25T04:47:52.597Z,9.40
2023-05-25T04:50:19.805Z,9.20
2023-05-25T04:52:47.260Z,9.30
2023-05-25T04:55:14.249Z,9.40
2023-05-25T04:57:43.079Z,9.30
2023-05-25T05:00:12.064Z,9.40
2023-05-25T05:02:40.023Z,9.40
2023-05-25T05:05:07.817Z,9.50
2023-05-25T05:07:35.293Z,9.40
2023-05-25T05:10:02.658Z,9.50
2023-05-25T05:12:29.925Z,9.50
2023-05-25T05:15:00.049Z,9.50
2023-05-25T05:17:28.131Z,9.60
2023-05-25T05:19:55.158Z,9.60
2023-05-25T05:22:23.586Z,9.70
2023-05-25T05:24:51.045Z,9.60
2023-05-25T05:27:26.208Z,9.70
2023-05-25T05:29:58.299Z,9.70
2023-05-25T05:32:25.631Z,9.60
2023-05-25T05:34:52.740Z,9.70
2023-05-25T05:37:31.960Z,9.70
2023-05-25T05:39:58.789Z,9.50
2023-05-25T05:42:27.579Z,9.70
2023-05-25T05:44:54.991Z,9.70
2023-05-25T05:47:22.294Z,9.70
2023-05-25T05:49:49.364Z,9.80
2023-05-25T05:52:16.874Z,9.80
2023-05-25T05:54:43.860Z,9.80
2023-05-25T05:57:13.415Z,9.70
2023-05-25T05:59:40.342Z,9.70
2023-05-25T06:02:07.775Z,9.70
2023-05-25T06:04:34.792Z,9.70
2023-05-25T06:07:01.613Z,9.70
2023-05-25T06:09:28.522Z,9.70
2023-05-25T06:11:59.399Z,9.70
2023-05-25T06:14:28.562Z,9.70
2023-05-25T06:16:58.414Z,9.80
2023-05-25T06:19:25.556Z,9.80
2023-05-25T06:21:52.465Z,9.90
2023-05-25T06:24:21.397Z,9.80
2023-05-25T06:26:48.399Z,9.80
2023-05-25T06:29:17.329Z,9.80
2023-05-25T06:31:44.793Z,9.80
2023-05-25T06:34:12.297Z,9.90
2023-05-25T06:36:41.656Z,9.90
2023-05-25T06:39:08.955Z,9.90
2023-05-25T06:41:38.507Z,9.90
2023-05-25T06:44:05.553Z,9.90
2023-05-25T06:46:40.222Z,9.90
2023-05-25T06:49:08.960Z,10.00
2023-05-25T06:51:35.937Z,10.10
2023-05-25T06:54:03.303Z,10.20
2023-05-25T06:56:30.309Z,10.10
2023-05-25T06:58:57.112Z,10.10
2023-05-25T07:01:24.099Z,10.20
2023-05-25T07:03:51.275Z,10.10
2023-05-25T07:06:18.326Z,10.30
2023-05-25T07:08:45.118Z,10.20
2023-05-25T07:11:14.115Z,10.20
2023-05-25T07:13:41.660Z,10.30
2023-05-25T07:16:08.599Z,10.40
2023-05-25T07:18:38.595Z,10.70
2023-05-25T07:21:06.039Z,10.60
2023-05-25T07:23:33.002Z,10.60
2023-05-25T07:25:59.848Z,10.80
2023-05-25T07:28:26.806Z,10.80
2023-05-25T07:30:53.913Z,10.70
2023-05-25T07:33:20.976Z,10.70
2023-05-25T07:35:47.872Z,10.80
2023-05-25T07:38:15.344Z,10.90
2023-05-25T07:40:42.433Z,10.90
2023-05-25T07:43:09.408Z,11.00
2023-05-25T07:45:36.399Z,11.00
2023-05-25T07:48:03.630Z,11.10
2023-05-25T07:50:31.949Z,11.10
2023-05-25T07:52:59.914Z,11.30
2023-05-25T07:55:27.225Z,11.30
2023-05-25T07:57:54.218Z,11.50
2023-05-25T08:00:21.502Z,11.70
2023-05-25T08:02:49.741Z,11.60
2023-05-25T08:05:17.224Z,11.60
2023-05-25T08:07:45.841Z,11.70
2023-05-25T08:10:12.698Z,11.80
2023-05-25T08:12:48.964Z,11.70
2023-05-25T08:15:16.982Z,11.90
2023-05-25T08:17:44.016Z,11.90
2023-05-25T08:20:12.041Z,11.90
2023-05-25T08:22:38.982Z,12.10
2023-05-25T08:25:06.946Z,12.10
2023-05-25T08:27:35.935Z,12.10
2023-05-25T08:30:04.020Z,12.20
2023-05-25T08:32:31.253Z,12.20
2023-05-25T08:34:58.135Z,12.30
2023-05-25T08:37:26.334Z,12.40
2023-05-25T08:39:53.406Z,12.40
2023-05-25T08:42:20.573Z,12.50
2023-05-25T08:44:47.709Z,12.70
2023-05-25T08:47:16.712Z,12.70
2023-05-25T08:49:45.576Z,12.80
2023-05-25T08:52:15.012Z,12.80
2023-05-25T08:54:45.235Z,12.80
2023-05-25T08:57:25.875Z,12.90
2023-05-25T09:00:10.764Z,13.00
2023-05-25T09:02:58.371Z,13.20
2023-05-25T09:05:26.158Z,13.40
2023-05-25T09:07:54.848Z,13.40
2023-05-25T09:10:23.797Z,13.50
2023-05-25T09:12:52.559Z,13.50
2023-05-25T09:15:19.904Z,13.60
2023-05-25T09:17:46.953Z,13.60
2023-05-25T09:20:15.741Z,13.70
2023-05-25T09:22:43.911Z,13.80
2023-05-25T09:25:11.747Z,13.90
2023-05-25T09:27:39.414Z,13.90
2023-05-25T09:30:06.890Z,14.00
2023-05-25T09:32:34.056Z,13.90
2023-05-25T09:35:08.536Z,13.90
2023-05-25T09:37:37.504Z,14.10
2023-05-25T09:40:08.957Z,14.00
2023-05-25T09:42:36.324Z,14.20
2023-05-25T09:45:04.004Z,14.50
2023-05-25T09:47:31.367Z,14.50
2023-05-25T09:49:58.767Z,14.80
2023-05-25T09:52:26.334Z,14.90
2023-05-25T09:54:53.629Z,14.90
2023-05-25T09:57:21.578Z,14.90
2023-05-25T09:59:48.621Z,14.90
2023-05-25T10:02:16.672Z,15.00
2023-05-25T10:04:43.843Z,15.10
2023-05-25T10:07:11.258Z,15.00
2023-05-25T10:09:44.603Z,15.20
2023-05-25T10:12:13.808Z,15.40
2023-05-25T10:14:42.967Z,15.40
2023-05-25T10:17:13.484Z,15.60
2023-05-25T10:19:57.250Z,15.50
2023-05-25T10:22:40.017Z,15.60
2023-05-25T10:25:31.519Z,15.80
2023-05-25T10:28:02.187Z,15.80
2023-05-25T10:30:29.389Z,15.70
2023-05-25T10:32:59.771Z,15.80
2023-05-25T10:35:26.903Z,15.80
2023-05-25T10:37:54.777Z,15.90
2023-05-25T10:40:22.805Z,15.90
2023-05-25T10:42:53.095Z,15.90
2023-05-25T10:45:20.667Z,15.90
2023-05-25T10:47:47.847Z,15.90
2023-05-25T10:50:29.396Z,16.10
2023-05-25T10:52:59.996Z,16.20
2023-05-25T10:55:31.845Z,16.30
2023-05-25T10:58:16.830Z,16.10
2023-05-25T11:00:57.999Z,16.00
2023-05-25T11:03:45.316Z,16.10
2023-05-25T11:06:13.829Z,16.40
2023-05-25T11:08:59.055Z,16.50
2023-05-25T11:11:49.591Z,17.00
2023-05-25T11:14:30.371Z,16.70
2023-05-25T11:17:11.822Z,16.70
2023-05-25T11:19:50.708Z,16.60
2023-05-25T11:22:21.965Z,16.50
2023-05-25T11:24:53.085Z,16.70
2023-05-25T11:27:24.638Z,16.40
2023-05-25T11:29:52.626Z,16.50
2023-05-25T11:32:19.689Z,16.90
2023-05-25T11:34:48.048Z,17.00
2023-05-25T11:37:22.025Z,17.00
2023-05-25T11:39:51.677Z,17.00
2023-05-25T11:42:24.389Z,17.10
2023-05-25T11:44:51.898Z,17.10
2023-05-25T11:47:25.061Z,17.00
2023-05-25T11:49:52.301Z,17.20
2023-05-25T11:52:22.295Z,17.00
2023-05-25T11:54:49.498Z,17.10
2023-05-25T11:57:22.584Z,17.20
2023-05-25T11:59:51.085Z,17.30
2023-05-25T12:02:18.637Z,17.40
2023-05-25T12:04:59.517Z,17.70
2023-05-25T12:07:28.473Z,17.80
2023-05-25T12:10:07.025Z,17.90
2023-05-25T12:12:51.462Z,17.70
2023-05-25T12:15:24.788Z,17.60
2023-05-25T12:17:53.719Z,17.80
2023-05-25T12:20:21.458Z,17.90
2023-05-25T12:22:48.729Z,17.90
2023-05-25T12:25:19.883Z,17.90
2023-05-25T12:27:46.872Z,17.70
2023-05-25T12:30:13.955Z,17.80
2023-05-25T12:32:54.701Z,17.70
2023-05-25T12:35:21.836Z,17.70
2023-05-25T12:37:50.977Z,17.70
2023-05-25T12:40:21.585Z,17.80
2023-05-25T12:42:57.175Z,17.80
2023-05-25T12:45:24.625Z,18.20
2023-05-25T12:47:51.699Z,18.10
2023-05-25T12:50:19.563Z,18.20
2023-05-25T12:52:47.978Z,18.10
2023-05-25T12:55:35.832Z,18.10
2023-05-25T12:58:07.092Z,18.00
2023-05-25T13:00:34.819Z,18.20
2023-05-25T13:03:03.044Z,18.50
2023-05-25T13:05:36.865Z,18.80
2023-05-25T13:08:05.149Z,18.80
2023-05-25T13:10:33.286Z,19.00
2023-05-25T13:13:00.878Z,19.00
2023-05-25T13:15:28.689Z,19.20
2023-05-25T13:17:58.413Z,19.30
2023-05-25T13:20:27.136Z,19.20
2023-05-25T13:22:55.847Z,19.00
2023-05-25T13:25:23.115Z,19.20
2023-05-25T13:27:51.550Z,19.70
2023-05-25T13:30:20.788Z,19.90
2023-05-25T13:32:50.310Z,19.50
2023-05-25T13:35:24.200Z,19.10
2023-05-25T13:37:51.496Z,19.30
2023-05-25T13:40:23.451Z,19.60
2023-05-25T13:42:53.163Z,19.60
2023-05-25T13:45:20.787Z,19.90
2023-05-25T13:47:48.051Z,20.00
2023-05-25T13:50:15.825Z,20.00
2023-05-25T13:52:42.756Z,20.00
2023-05-25T13:55:09.715Z,20.10
2023-05-25T13:57:37.684Z,20.30
2023-05-25T14:00:07.308Z,20.20
2023-05-25T14:02:35.185Z,19.80
2023-05-25T14:05:02.561Z,19.50
2023-05-25T14:07:29.449Z,19.60
2023-05-25T14:09:57.495Z,19.80
2023-05-25T14:12:25.097Z,20.10
2023-05-25T14:14:52.115Z,20.20
2023-05-25T14:17:18.981Z,20.30
2023-05-25T14:19:45.894Z,20.30
2023-05-25T14:22:14.480Z,20.10
2023-05-25T14:24:41.987Z,20.30
2023-05-25T14:27:09.155Z,20.50
2023-05-25T14:29:36.226Z,20.50
2023-05-25T14:32:03.386Z,20.60
2023-05-25T14:34:30.296Z,20.70
2023-05-25T14:36:57.157Z,20.90
2023-05-25T14:39:24.088Z,21.00
2023-05-25T14:41:50.896Z,20.80
2023-05-25T14:44:17.761Z,20.80
2023-05-25T14:46:44.693Z,20.80
2023-05-25T14:49:31.421Z,20.80
2023-05-25T14:52:15.808Z,20.90
2023-05-25T14:54:45.880Z,20.80
2023-05-25T14:57:13.061Z,20.80
2023-05-25T14:59:40.308Z,20.70
2023-05-25T15:02:07.713Z,21.00
2023-05-25T15:04:34.820Z,21.00
2023-05-25T15:07:02.177Z,20.80
2023-05-25T15:09:29.490Z,20.50
2023-05-25T15:11:57.285Z,20.50
2023-05-25T15:14:24.345Z,20.60
2023-05-25T15:16:51.546Z,20.50
2023-05-25T15:19:18.651Z,20.40
2023-05-25T15:21:45.870Z,20.30
2023-05-25T15:24:16.871Z,20.30
2023-05-25T15:26:44.088Z,20.30
2023-05-25T15:29:11.231Z,20.10
2023-05-25T15:31:39.550Z,20.10
2023-05-25T15:34:06.746Z,20.10
2023-05-25T15:36:34.089Z,20.10
2023-05-25T15:39:01.528Z,20.00
2023-05-25T15:41:28.738Z,20.10
2023-05-25T15:44:01.472Z,20.10
2023-05-25T15:46:29.044Z,20.00
2023-05-25T15:48:56.666Z,19.90
2023-05-25T15:51:24.228Z,19.70
2023-05-25T15:53:52.000Z,19.60
2023-05-25T15:56:20.564Z,19.60
2023-05-25T15:58:50.024Z,19.60
2023-05-25T16:01:18.045Z,19.50
2023-05-25T16:03:45.117Z,19.50
2023-05-25T16:06:12.400Z,19.40
2023-05-25T16:08:39.525Z,19.30
2023-05-25T16:11:06.753Z,19.20
2023-05-25T16:13:33.699Z,19.20
2023-05-25T16:16:00.860Z,19.10
2023-05-25T16:18:27.888Z,19.10
2023-05-25T16:20:58.069Z,19.00
2023-05-25T16:23:25.288Z,18.90
2023-05-25T16:25:52.306Z,18.90
2023-05-25T16:28:19.312Z,18.90
2023-05-25T16:30:46.278Z,18.90
2023-05-25T16:33:32.738Z,18.90
2023-05-25T16:36:00.468Z,18.90
2023-05-25T16:38:27.487Z,18.90
2023-05-25T16:40:54.500Z,18.90
2023-05-25T16:43:25.174Z,18.80
2023-05-25T16:45:52.307Z,18.80
2023-05-25T16:48:21.525Z,18.70
2023-05-25T16:50:50.162Z,18.70
2023-05-25T16:53:17.185Z,18.60
2023-05-25T16:55:44.297Z,18.60
2023-05-25T16:58:11.479Z,18.60
2023-05-25T17:00:38.416Z,18.50
2023-05-25T17:03:05.476Z,18.50
2023-05-25T17:05:32.717Z,18.50
2023-05-25T17:07:59.749Z,18.50
2023-05-25T17:10:26.671Z,18.50
2023-05-25T17:12:54.487Z,18.40
2023-05-25T17:15:21.437Z,18.50
2023-05-25T17:17:48.583Z,18.40
2023-05-25T17:20:15.853Z,18.30
2023-05-25T17:22:42.868Z,18.30
2023-05-25T17:25:10.504Z,18.40
2023-05-25T17:27:37.549Z,18.20
2023-05-25T17:30:05.060Z,18.20
2023-05-25T17:32:32.223Z,18.20
2023-05-25T17:34:59.203Z,18.10
2023-05-25T17:37:26.104Z,18.10
2023-05-25T17:39:53.135Z,18.00
2023-05-25T17:42:20.060Z,18.00
2023-05-25T17:44:47.024Z,17.90
2023-05-25T17:47:14.137Z,17.90
2023-05-25T17:49:41.213Z,17.90
2023-05-25T17:52:08.307Z,17.70
2023-05-25T17:54:35.672Z,17.80
2023-05-25T17:57:02.907Z,17.70
2023-05-25T17:59:30.020Z,17.60
2023-05-25T18:01:57.116Z,17.50
2023-05-25T18:04:24.055Z,17.60
2023-05-25T18:06:53.844Z,17.50
2023-05-25T18:09:21.355Z,17.50
2023-05-25T18:11:48.464Z,17.60
2023-05-25T18:14:15.600Z,17.30
2023-05-25T18:16:44.759Z,17.20
2023-05-25T18:19:12.129Z,17.20
2023-05-25T18:21:40.317Z,16.90
2023-05-25T18:24:10.894Z,16.90
2023-05-25T18:26:41.773Z,16.90
2023-05-25T18:29:08.897Z,16.90
2023-05-25T18:31:36.052Z,16.90
2023-05-25T18:34:03.309Z,16.70
2023-05-25T18:36:30.604Z,16.70
2023-05-25T18:38:57.638Z,16.40
2023-05-25T18:41:27.067Z,16.20
2023-05-25T18:43:55.274Z,15.90
2023-05-25T18:46:23.418Z,16.00
2023-05-25T18:48:50.576Z,16.00
2023-05-25T18:51:17.848Z,15.90
2023-05-25T18:53:44.981Z,15.70
2023-05-25T18:56:12.156Z,15.90
2023-05-25T18:58:39.058Z,15.70
2023-05-25T19:01:06.059Z,15.60
2023-05-25T19:03:33.362Z,15.20
2023-05-25T19:06:00.401Z,14.90
2023-05-25T19:08:27.270Z,15.10
2023-05-25T19:10:54.174Z,15.00
2023-05-25T19:13:22.871Z,15.00
2023-05-25T19:15:50.602Z,14.80
2023-05-25T19:18:17.699Z,14.90
2023-05-25T19:20:44.757Z,15.00
2023-05-25T19:23:11.976Z,14.80
2023-05-25T19:25:39.068Z,15.00
2023-05-25T19:28:06.861Z,15.00
2023-05-25T19:30:33.833Z,15.10
2023-05-25T19:33:00.812Z,15.10
2023-05-25T19:35:27.774Z,15.20
2023-05-25T19:37:54.707Z,14.80
2023-05-25T19:40:21.711Z,14.80
2023-05-25T19:42:48.608Z,14.80
2023-05-25T19:45:19.179Z,15.10
2023-05-25T19:47:47.250Z,15.20
2023-05-25T19:50:14.274Z,15.00
2023-05-25T19:52:41.702Z,15.10
2023-05-25T19:55:08.706Z,15.10
2023-05-25T19:57:35.734Z,15.20
2023-05-25T20:00:02.697Z,15.30
2023-05-25T20:02:38.616Z,15.20
2023-05-25T20:05:06.073Z,15.20
2023-05-25T20:07:33.061Z,15.00
2023-05-25T20:09:59.980Z,15.00
2023-05-25T20:12:26.994Z,15.10
2023-05-25T20:14:54.725Z,15.00
2023-05-25T20:17:21.739Z,15.00
2023-05-25T20:19:48.687Z,15.00
2023-05-25T20:22:15.723Z,14.90
2023-05-25T20:24:42.639Z,15.10
2023-05-25T20:27:09.856Z,15.00
2023-05-25T20:29:37.448Z,15.30
2023-05-25T20:32:04.658Z,15.40
2023-05-25T20:34:31.712Z,15.20
2023-05-25T20:36:58.585Z,15.10
2023-05-25T20:39:26.506Z,15.20
2023-05-25T20:41:53.402Z,15.00
2023-05-25T20:44:20.289Z,14.90
2023-05-25T20:46:47.255Z,15.00
2023-05-25T20:49:14.234Z,15.10
2023-05-25T20:51:44.430Z,15.00
2023-05-25T20:54:11.500Z,15.20
2023-05-25T20:56:38.451Z,14.80
2023-05-25T20:59:05.425Z,15.00
2023-05-25T21:01:32.476Z,15.10
2023-05-25T21:03:59.499Z,15.00
2023-05-25T21:06:26.503Z,14.80
2023-05-25T21:08:54.169Z,14.90
2023-05-25T21:11:22.102Z,14.90
2023-05-25T21:13:49.496Z,14.90
2023-05-25T21:16:16.666Z,14.90
2023-05-25T21:18:43.654Z,14.80
2023-05-25T21:21:11.360Z,14.80
2023-05-25T21:23:38.386Z,14.90
2023-05-25T21:26:05.231Z,14.90
2023-05-25T21:28:32.178Z,14.90
2023-05-25T21:30:59.184Z,14.80
2023-05-25T21:33:26.268Z,14.90
2023-05-25T21:35:53.198Z,14.90
2023-05-25T21:38:20.266Z,14.80
2023-05-25T21:40:47.388Z,14.80
2023-05-25T21:43:14.354Z,14.80
2023-05-25T21:45:41.554Z,14.80
2023-05-25T21:48:08.594Z,14.80
2023-05-25T21:50:36.653Z,14.80
2023-05-25T21:53:03.592Z,14.80
2023-05-25T21:55:30.580Z,14.70
2023-05-25T21:57:57.496Z,14.70
2023-05-25T22:00:24.517Z,14.70
2023-05-25T22:02:51.850Z,14.70
2023-05-25T22:05:18.981Z,14.50
2023-05-25T22:07:46.079Z,14.40
2023-05-25T22:10:13.073Z,14.40
2023-05-25T22:12:40.090Z,14.30
2023-05-25T22:15:07.614Z,14.40
2023-05-25T22:17:34.558Z,14.30
2023-05-25T22:22:31.361Z,14.30
2023-05-25T22:24:58.378Z,14.40
2023-05-25T22:27:25.269Z,14.50
2023-05-25T22:29:52.223Z,14.40
2023-05-25T22:32:19.368Z,14.40
2023-05-25T22:34:47.292Z,14.30
2023-05-25T22:37:14.350Z,14.30
2023-05-25T22:39:41.305Z,14.20
2023-05-25T22:42:08.514Z,14.30
2023-05-25T22:44:36.429Z,14.20
2023-05-25T22:47:03.882Z,14.20
2023-05-25T22:49:30.859Z,14.10
2023-05-25T22:51:57.900Z,14.10
2023-05-25T22:54:24.772Z,14.10
2023-05-25T22:56:51.831Z,14.00
2023-05-25T22:59:19.035Z,14.10
2023-05-25T23:01:46.076Z,14.20
2023-05-25T23:04:13.252Z,14.00
2023-05-25T23:06:40.369Z,13.90
2023-05-25T23:09:07.283Z,13.90
2023-05-25T23:11:34.191Z,13.90
2023-05-25T23:14:01.610Z,13.90
2023-05-25T23:16:29.160Z,13.90
2023-05-25T23:18:57.028Z,13.80
2023-05-25T23:21:24.115Z,13.80
2023-05-25T23:23:51.618Z,13.90
2023-05-25T23:26:18.578Z,13.60
2023-05-25T23:28:45.481Z,13.80
2023-05-25T23:31:12.779Z,13.70
2023-05-25T23:33:39.788Z,13.60
2023-05-25T23:36:06.800Z,13.50
2023-05-25T23:38:33.843Z,13.50
2023-05-25T23:41:01.224Z,13.50
2023-05-25T23:43:28.204Z,13.70
2023-05-25T23:45:55.170Z,13.50
2023-05-25T23:48:22.162Z,13.40
2023-05-25T23:50:49.141Z,13.50
2023-05-25T23:53:16.373Z,13.60
2023-05-25T23:55:43.551Z,13.50
2023-05-25T23:58:11.128Z,13.40
